createdAt,value
2018-04-29T00:01:32.231Z,8.77
2018-04-29T00:04:05.931Z,11.12
2018-04-29T00:06:39.513Z,10.27
2018-04-29T00:09:13.112Z,10.15
2018-04-29T00:11:46.619Z,9.43
2018-04-29T00:14:20.942Z,10.15
2018-04-29T00:16:54.664Z,11.10
2018-04-29T00:19:28.218Z,10.70
2018-04-29T00:22:01.827Z,10.38
2018-04-29T00:24:35.441Z,10.23
2018-04-29T00:27:08.981Z,10.65
2018-04-29T00:29:42.594Z,10.30
2018-04-29T00:32:16.430Z,9.70
2018-04-29T00:34:50.050Z,10.30
2018-04-29T00:37:23.641Z,9.77
2018-04-29T00:39:57.271Z,10.00
2018-04-29T00:42:31.030Z,9.50
2018-04-29T00:45:04.578Z,10.02
2018-04-29T00:47:38.247Z,9.95
2018-04-29T00:50:11.864Z,9.45
2018-04-29T00:52:45.424Z,10.10
2018-04-29T00:55:19.045Z,10.45
2018-04-29T00:57:52.669Z,9.40
2018-04-29T01:00:26.288Z,10.13
2018-04-29T01:02:59.847Z,9.70
2018-04-29T01:05:33.469Z,11.18
2018-04-29T01:08:07.047Z,10.43
2018-04-29T01:10:40.576Z,11.80
2018-04-29T01:13:14.133Z,11.23
2018-04-29T01:15:47.881Z,10.55
2018-04-29T01:18:21.451Z,10.07
2018-04-29T01:20:55.064Z,10.27
2018-04-29T01:23:28.654Z,10.55
2018-04-29T01:26:02.239Z,11.25
2018-04-29T01:28:35.850Z,11.32
2018-04-29T01:31:10.178Z,10.05
2018-04-29T01:33:43.839Z,10.70
2018-04-29T01:36:17.362Z,10.15
2018-04-29T01:38:50.982Z,11.15
2018-04-29T01:41:24.517Z,10.48
2018-04-29T01:43:58.058Z,10.25
2018-04-29T01:46:31.652Z,10.18
2018-04-29T01:49:05.235Z,9.55
2018-04-29T01:51:38.809Z,9.63
2018-04-29T01:54:12.308Z,10.93
2018-04-29T01:56:45.874Z,10.68
2018-04-29T01:59:20.162Z,9.70
2018-04-29T02:01:53.929Z,10.70
2018-04-29T02:04:27.484Z,11.45
2018-04-29T02:07:01.061Z,10.55
2018-04-29T02:09:34.683Z,10.75
2018-04-29T02:12:08.303Z,8.82
2018-04-29T02:14:41.920Z,8.15
2018-04-29T02:17:15.442Z,7.12
2018-04-29T02:19:48.969Z,7.28
2018-04-29T02:22:22.602Z,7.68
2018-04-29T02:24:56.217Z,7.35
2018-04-29T02:27:29.791Z,8.23
2018-04-29T02:30:03.389Z,7.40
2018-04-29T02:32:37.787Z,7.43
2018-04-29T02:35:12.254Z,6.97
2018-04-29T02:37:46.765Z,7.65
2018-04-29T02:40:20.307Z,8.13
2018-04-29T02:42:53.798Z,7.93
2018-04-29T02:45:27.354Z,8.15
2018-04-29T02:48:01.680Z,7.62
2018-04-29T02:50:36.297Z,8.85
2018-04-29T02:53:10.089Z,6.95
2018-04-29T02:55:43.640Z,7.20
2018-04-29T02:58:18.116Z,7.78
2018-04-29T03:00:51.632Z,8.13
2018-04-29T03:03:25.190Z,8.35
2018-04-29T03:05:58.912Z,8.32
2018-04-29T03:08:33.228Z,7.85
2018-04-29T03:11:06.925Z,7.78
2018-04-29T03:13:40.633Z,7.80
2018-04-29T03:16:14.237Z,8.18
2018-04-29T03:18:48.586Z,8.80
2018-04-29T03:21:23.009Z,8.38
2018-04-29T03:23:57.416Z,8.82
2018-04-29T03:26:31.824Z,8.98
2018-04-29T03:29:06.354Z,8.32
2018-04-29T03:31:40.072Z,8.00
2018-04-29T03:34:13.649Z,8.73
2018-04-29T03:36:47.226Z,7.60
2018-04-29T03:39:20.853Z,7.00
2018-04-29T03:41:54.488Z,7.87
2018-04-29T03:44:28.082Z,8.07
2018-04-29T03:47:01.627Z,8.38
2018-04-29T03:49:35.192Z,8.90
2018-04-29T03:52:08.805Z,8.27
2018-04-29T03:54:42.362Z,8.88
2018-04-29T03:57:27.825Z,8.80
2018-04-29T04:00:13.218Z,8.45
2018-04-29T04:02:58.767Z,9.15
2018-04-29T04:05:32.392Z,9.02
2018-04-29T04:08:06.457Z,10.50
2018-04-29T04:10:40.821Z,9.43
2018-04-29T04:13:14.577Z,8.35
2018-04-29T04:15:48.113Z,8.02
2018-04-29T04:18:21.734Z,8.70
2018-04-29T04:20:55.286Z,9.05
2018-04-29T04:23:28.837Z,8.77
2018-04-29T04:26:02.428Z,8.10
2018-04-29T04:28:36.006Z,8.77
2018-04-29T04:31:10.311Z,9.60
2018-04-29T04:33:43.877Z,9.23
2018-04-29T04:36:17.444Z,9.13
2018-04-29T04:38:51.021Z,9.73
2018-04-29T04:41:24.693Z,9.40
2018-04-29T04:43:58.271Z,8.90
2018-04-29T04:46:31.964Z,9.23
2018-04-29T04:49:05.488Z,8.80
2018-04-29T04:51:39.073Z,9.63
2018-04-29T04:54:12.563Z,9.60
2018-04-29T04:56:46.151Z,9.50
2018-04-29T04:59:19.774Z,9.93
2018-04-29T05:01:53.348Z,9.32
2018-04-29T05:04:26.854Z,9.27
2018-04-29T05:07:00.455Z,8.75
2018-04-29T05:09:34.047Z,8.90
2018-04-29T05:12:07.616Z,9.00
2018-04-29T05:14:41.260Z,10.07
2018-04-29T05:17:14.858Z,8.60
2018-04-29T05:19:48.449Z,8.63
2018-04-29T05:22:21.993Z,9.73
2018-04-29T05:24:55.526Z,7.70
2018-04-29T05:27:29.941Z,10.90
2018-04-29T05:30:03.509Z,8.77
2018-04-29T05:32:37.076Z,9.05
2018-04-29T05:35:10.564Z,9.35
2018-04-29T05:37:44.124Z,9.25
2018-04-29T05:40:18.408Z,8.80
2018-04-29T05:42:52.117Z,8.93
2018-04-29T05:45:25.639Z,8.23
2018-04-29T05:47:59.199Z,8.30
2018-04-29T05:50:32.795Z,8.50
2018-04-29T05:53:06.359Z,8.50
2018-04-29T05:55:39.930Z,9.10
2018-04-29T05:58:13.481Z,9.02
2018-04-29T06:00:47.005Z,7.95
2018-04-29T06:03:20.594Z,9.25
2018-04-29T06:05:54.190Z,8.63
2018-04-29T06:08:27.782Z,8.23
2018-04-29T06:11:01.385Z,8.00
2018-04-29T06:13:35.715Z,7.85
2018-04-29T06:16:09.416Z,8.15
2018-04-29T06:18:43.036Z,7.55
2018-04-29T06:21:16.562Z,8.55
2018-04-29T06:23:50.216Z,7.55
2018-04-29T06:26:25.349Z,9.15
2018-04-29T06:28:59.092Z,7.90
2018-04-29T06:31:32.632Z,7.37
2018-04-29T06:34:06.261Z,7.57
2018-04-29T06:36:39.792Z,7.95
2018-04-29T06:39:13.330Z,7.22
2018-04-29T06:41:46.893Z,8.35
2018-04-29T06:44:20.544Z,8.05
2018-04-29T06:46:54.939Z,8.15
2018-04-29T06:49:28.662Z,7.68
2018-04-29T06:52:02.994Z,8.85
2018-04-29T06:54:36.701Z,7.35
2018-04-29T06:57:10.308Z,7.55
2018-04-29T06:59:43.916Z,8.00
2018-04-29T07:02:17.558Z,8.27
2018-04-29T07:04:51.291Z,7.97
2018-04-29T07:07:25.399Z,8.20
2018-04-29T07:09:59.022Z,8.50
2018-04-29T07:12:32.606Z,8.85
2018-04-29T07:15:06.156Z,8.10
2018-04-29T07:17:39.779Z,8.18
2018-04-29T07:20:13.517Z,8.30
2018-04-29T07:22:47.069Z,7.47
2018-04-29T07:25:20.720Z,6.65
2018-04-29T07:27:54.323Z,7.87
2018-04-29T07:30:27.933Z,7.05
2018-04-29T07:33:01.502Z,7.35
2018-04-29T07:35:35.124Z,7.75
2018-04-29T07:38:08.671Z,7.28
2018-04-29T07:40:42.332Z,7.50
2018-04-29T07:43:15.942Z,7.55
2018-04-29T07:45:50.257Z,7.05
2018-04-29T07:48:23.963Z,6.30
2018-04-29T07:50:57.553Z,7.03
2018-04-29T07:53:31.834Z,6.50
2018-04-29T07:56:05.510Z,5.68
2018-04-29T07:58:39.086Z,6.32
2018-04-29T08:01:12.688Z,6.15
2018-04-29T08:03:46.536Z,6.07
2018-04-29T08:06:20.072Z,6.05
2018-04-29T08:08:54.423Z,6.22
2018-04-29T08:11:28.035Z,5.53
2018-04-29T08:14:01.624Z,5.55
2018-04-29T08:16:35.190Z,5.78
2018-04-29T08:19:09.535Z,5.90
2018-04-29T08:21:43.205Z,5.62
2018-04-29T08:24:16.854Z,5.45
2018-04-29T08:26:50.390Z,6.53
2018-04-29T08:29:23.902Z,5.10
2018-04-29T08:31:57.448Z,5.03
2018-04-29T08:34:30.975Z,5.32
2018-04-29T08:37:04.512Z,5.12
2018-04-29T08:39:38.838Z,4.80
2018-04-29T08:42:12.422Z,5.95
2018-04-29T08:44:46.003Z,5.25
2018-04-29T08:47:19.501Z,4.78
2018-04-29T08:49:53.016Z,4.90
2018-04-29T08:52:26.555Z,4.45
2018-04-29T08:55:00.113Z,5.10
2018-04-29T08:57:34.470Z,4.90
2018-04-29T09:00:08.142Z,4.45
2018-04-29T09:02:41.754Z,5.10
2018-04-29T09:05:18.988Z,5.28
2018-04-29T09:07:52.757Z,5.80
2018-04-29T09:10:26.257Z,4.78
2018-04-29T09:12:59.838Z,6.30
2018-04-29T09:15:33.440Z,4.70
2018-04-29T09:18:07.790Z,4.62
2018-04-29T09:20:41.377Z,5.10
2018-04-29T09:23:14.957Z,4.90
2018-04-29T09:25:48.633Z,4.72
2018-04-29T09:28:22.388Z,5.05
2018-04-29T09:30:56.684Z,3.92
2018-04-29T09:33:30.440Z,4.75
2018-04-29T09:36:03.992Z,4.87
2018-04-29T09:38:37.564Z,4.28
2018-04-29T09:41:11.115Z,4.45
2018-04-29T09:43:44.788Z,4.68
2018-04-29T09:46:18.289Z,4.53
2018-04-29T09:48:51.906Z,4.35
2018-04-29T09:51:25.555Z,4.00
2018-04-29T09:53:59.104Z,3.75
2018-04-29T09:56:32.895Z,4.30
2018-04-29T09:59:06.445Z,4.85
2018-04-29T10:01:40.030Z,3.58
2018-04-29T10:04:13.625Z,4.28
2018-04-29T10:06:47.275Z,3.60
2018-04-29T10:09:20.989Z,4.70
2018-04-29T10:11:54.645Z,3.00
2018-04-29T10:14:28.217Z,3.50
2018-04-29T10:17:01.797Z,3.80
2018-04-29T10:19:35.551Z,3.72
2018-04-29T10:22:09.920Z,3.80
2018-04-29T10:24:43.693Z,3.97
2018-04-29T10:27:17.235Z,3.85
2018-04-29T10:29:50.820Z,4.55
2018-04-29T10:32:24.510Z,3.70
2018-04-29T10:34:58.069Z,4.15
2018-04-29T10:37:31.764Z,3.50
2018-04-29T10:40:05.336Z,3.90
2018-04-29T10:42:38.945Z,3.33
2018-04-29T10:45:12.552Z,3.92
2018-04-29T10:47:46.175Z,3.60
2018-04-29T10:50:19.857Z,3.50
2018-04-29T10:52:53.523Z,4.78
2018-04-29T10:55:27.132Z,4.35
2018-04-29T10:58:01.568Z,4.05
2018-04-29T11:00:35.079Z,3.50
2018-04-29T11:03:08.841Z,3.75
2018-04-29T11:05:43.215Z,3.92
2018-04-29T11:08:17.706Z,4.00
2018-04-29T11:10:51.338Z,4.10
2018-04-29T11:13:24.897Z,3.70
2018-04-29T11:15:58.551Z,3.60
2018-04-29T11:18:32.823Z,3.85
2018-04-29T11:21:07.150Z,3.55
2018-04-29T11:23:41.473Z,4.35
2018-04-29T11:26:15.055Z,3.70
2018-04-29T11:28:49.480Z,3.78
2018-04-29T11:31:23.073Z,4.78
2018-04-29T11:33:56.740Z,3.50
2018-04-29T11:36:30.285Z,3.90
2018-04-29T11:39:03.968Z,4.05
2018-04-29T11:41:38.407Z,3.95
2018-04-29T11:44:12.004Z,4.18
2018-04-29T11:46:45.592Z,3.97
2018-04-29T11:49:19.260Z,3.75
2018-04-29T11:51:53.634Z,3.45
2018-04-29T11:54:27.310Z,3.95
2018-04-29T11:57:00.860Z,4.32
2018-04-29T11:59:35.364Z,3.40
2018-04-29T12:02:09.861Z,3.28
2018-04-29T12:04:43.589Z,3.83
2018-04-29T12:07:17.228Z,3.95
2018-04-29T12:09:51.721Z,3.83
2018-04-29T12:12:25.224Z,3.53
2018-04-29T12:14:58.956Z,3.60
2018-04-29T12:17:32.503Z,3.75
2018-04-29T12:20:06.047Z,4.10
2018-04-29T12:22:39.596Z,3.65
2018-04-29T12:25:13.936Z,3.53
2018-04-29T12:27:47.457Z,4.07
2018-04-29T12:30:21.014Z,3.60
2018-04-29T12:32:54.537Z,3.85
2018-04-29T12:35:28.307Z,4.22
2018-04-29T12:38:02.632Z,3.67
2018-04-29T12:40:36.239Z,3.72
2018-04-29T12:43:10.652Z,3.85
2018-04-29T12:45:44.369Z,3.53
2018-04-29T12:48:17.956Z,3.15
2018-04-29T12:50:51.558Z,3.70
2018-04-29T12:53:25.180Z,3.70
2018-04-29T12:55:58.890Z,3.33
2018-04-29T12:58:32.468Z,4.03
2018-04-29T13:01:06.053Z,5.15
2018-04-29T13:03:40.490Z,4.87
2018-04-29T13:06:14.074Z,3.30
2018-04-29T13:08:47.809Z,3.70
2018-04-29T13:11:21.485Z,3.72
2018-04-29T13:13:55.213Z,3.70
2018-04-29T13:16:28.906Z,4.75
2018-04-29T13:19:03.313Z,3.10
2018-04-29T13:21:37.857Z,3.65
2018-04-29T13:24:11.579Z,3.45
2018-04-29T13:26:45.265Z,6.45
2018-04-29T13:29:19.000Z,3.60
2018-04-29T13:31:52.557Z,3.80
2018-04-29T13:34:26.151Z,3.65
2018-04-29T13:36:59.835Z,3.22
2018-04-29T13:39:33.531Z,3.40
2018-04-29T13:42:07.240Z,3.12
2018-04-29T13:44:41.678Z,3.05
2018-04-29T13:47:15.222Z,3.65
2018-04-29T13:49:49.699Z,3.53
2018-04-29T13:52:23.363Z,3.80
2018-04-29T13:54:56.929Z,3.72
2018-04-29T13:57:30.585Z,3.53
2018-04-29T14:00:04.165Z,4.68
2018-04-29T14:02:37.818Z,3.47
2018-04-29T14:05:11.538Z,3.50
2018-04-29T14:07:45.203Z,3.25
2018-04-29T14:10:18.789Z,3.40
2018-04-29T14:12:53.215Z,3.45
2018-04-29T14:15:26.814Z,3.67
2018-04-29T14:18:00.407Z,4.15
2018-04-29T14:20:34.048Z,3.30
2018-04-29T14:23:07.757Z,3.53
2018-04-29T14:25:41.616Z,3.25
2018-04-29T14:28:16.204Z,4.25
2018-04-29T14:30:49.819Z,3.65
2018-04-29T14:33:23.629Z,2.80
2018-04-29T14:35:57.392Z,2.62
2018-04-29T14:38:31.141Z,2.47
2018-04-29T14:41:04.887Z,3.28
2018-04-29T14:43:38.649Z,3.40
2018-04-29T14:46:12.278Z,3.40
2018-04-29T14:48:45.971Z,3.20
2018-04-29T14:51:20.532Z,2.87
2018-04-29T14:53:54.108Z,2.92
2018-04-29T14:56:27.627Z,3.20
2018-04-29T14:59:01.235Z,3.87
2018-04-29T15:01:34.819Z,3.50
2018-04-29T15:04:08.455Z,3.92
2018-04-29T15:06:42.129Z,3.80
2018-04-29T15:09:15.713Z,3.80
2018-04-29T15:11:49.347Z,3.90
2018-04-29T15:14:22.926Z,4.05
2018-04-29T15:16:56.518Z,3.22
2018-04-29T15:19:41.932Z,4.60
2018-04-29T15:22:15.531Z,3.97
2018-04-29T15:24:49.233Z,3.60
2018-04-29T15:27:23.717Z,4.70
2018-04-29T15:29:57.327Z,4.40
2018-04-29T15:32:30.811Z,3.85
2018-04-29T15:35:04.431Z,4.22
2018-04-29T15:37:38.742Z,4.75
2018-04-29T15:40:13.056Z,3.75
2018-04-29T15:42:47.575Z,3.47
2018-04-29T15:45:21.251Z,3.80
2018-04-29T15:47:54.943Z,3.72
2018-04-29T15:50:29.405Z,4.03
2018-04-29T15:53:03.033Z,3.92
2018-04-29T15:55:36.704Z,4.12
2018-04-29T15:58:11.359Z,3.75
2018-04-29T16:00:44.848Z,3.85
2018-04-29T16:03:18.449Z,3.33
2018-04-29T16:05:52.049Z,3.45
2018-04-29T16:08:25.633Z,3.45
2018-04-29T16:11:00.092Z,3.50
2018-04-29T16:13:33.652Z,3.08
2018-04-29T16:16:08.177Z,3.70
2018-04-29T16:18:41.773Z,3.33
2018-04-29T16:21:15.447Z,3.90
2018-04-29T16:23:49.178Z,3.75
2018-04-29T16:26:22.712Z,5.20
2018-04-29T16:28:56.367Z,3.28
2018-04-29T16:31:30.115Z,3.90
2018-04-29T16:34:03.750Z,3.40
2018-04-29T16:36:37.280Z,3.72
2018-04-29T16:39:10.895Z,3.15
2018-04-29T16:41:44.732Z,2.78
2018-04-29T16:44:19.224Z,3.17
2018-04-29T16:46:52.825Z,2.62
2018-04-29T16:49:26.384Z,2.50
2018-04-29T16:51:59.936Z,2.58
2018-04-29T16:54:33.627Z,2.03
2018-04-29T16:57:07.335Z,2.87
2018-04-29T16:59:40.904Z,2.93
2018-04-29T17:02:14.428Z,2.50
2018-04-29T17:04:48.136Z,2.65
2018-04-29T17:07:21.663Z,2.70
2018-04-29T17:09:55.345Z,2.17
2018-04-29T17:12:28.920Z,2.08
2018-04-29T17:15:02.533Z,2.10
2018-04-29T17:17:36.157Z,2.42
2018-04-29T17:20:09.719Z,2.20
2018-04-29T17:22:43.266Z,2.15
2018-04-29T17:25:16.856Z,3.10
2018-04-29T17:27:50.503Z,2.60
2018-04-29T17:30:24.239Z,2.67
2018-04-29T17:32:58.750Z,2.55
2018-04-29T17:35:32.264Z,2.37
2018-04-29T17:38:05.848Z,2.62
2018-04-29T17:40:39.430Z,2.35
2018-04-29T17:43:13.164Z,2.60
2018-04-29T17:45:46.733Z,1.90
2018-04-29T17:48:20.347Z,2.53
2018-04-29T17:50:53.985Z,2.58
2018-04-29T17:53:27.536Z,2.40
2018-04-29T17:56:01.210Z,2.35
2018-04-29T17:58:34.706Z,2.00
2018-04-29T18:01:08.329Z,2.37
2018-04-29T18:03:41.949Z,2.62
2018-04-29T18:06:15.624Z,2.33
2018-04-29T18:08:49.284Z,1.87
2018-04-29T18:11:22.883Z,1.95
2018-04-29T18:13:56.584Z,2.05
2018-04-29T18:16:31.081Z,1.70
2018-04-29T18:19:04.835Z,1.90
2018-04-29T18:21:38.404Z,1.80
2018-04-29T18:24:11.989Z,2.25
2018-04-29T18:26:45.682Z,2.22
2018-04-29T18:29:19.274Z,2.62
2018-04-29T18:31:53.807Z,2.08
2018-04-29T18:34:28.230Z,1.62
2018-04-29T18:37:01.856Z,1.50
2018-04-29T18:39:35.416Z,1.77
2018-04-29T18:42:09.171Z,1.80
2018-04-29T18:44:42.773Z,1.20
2018-04-29T18:47:16.381Z,1.20
2018-04-29T18:49:50.039Z,1.45
2018-04-29T18:52:23.791Z,1.80
2018-04-29T18:54:57.343Z,1.35
2018-04-29T18:57:30.946Z,1.50
2018-04-29T19:00:04.522Z,1.25
2018-04-29T19:02:38.131Z,1.80
2018-04-29T19:05:11.917Z,1.75
2018-04-29T19:07:46.385Z,1.40
2018-04-29T19:10:20.096Z,1.98
2018-04-29T19:12:53.666Z,1.62
2018-04-29T19:15:27.156Z,1.83
2018-04-29T19:18:00.769Z,1.75
2018-04-29T19:20:34.291Z,2.03
2018-04-29T19:23:07.868Z,2.40
2018-04-29T19:25:41.564Z,2.10
2018-04-29T19:28:15.187Z,2.17
2018-04-29T19:30:48.708Z,2.30
2018-04-29T19:33:22.271Z,2.30
2018-04-29T19:35:55.902Z,2.15
2018-04-29T19:38:29.530Z,2.00
2018-04-29T19:41:03.016Z,1.77
2018-04-29T19:43:36.598Z,2.25
2018-04-29T19:46:11.018Z,1.80
2018-04-29T19:48:44.596Z,2.00
2018-04-29T19:51:18.916Z,2.00
2018-04-29T19:53:52.446Z,2.55
2018-04-29T19:56:25.960Z,2.20
2018-04-29T19:58:59.509Z,2.47
2018-04-29T20:01:33.115Z,1.70
2018-04-29T20:04:06.703Z,1.90
2018-04-29T20:06:40.263Z,2.97
2018-04-29T20:09:13.799Z,2.65
2018-04-29T20:11:48.132Z,2.37
2018-04-29T20:14:21.715Z,2.10
2018-04-29T20:16:55.291Z,2.25
2018-04-29T20:19:28.805Z,2.35
2018-04-29T20:22:02.355Z,3.28
2018-04-29T20:24:35.924Z,2.20
2018-04-29T20:27:09.424Z,3.53
2018-04-29T20:29:43.044Z,2.05
2018-04-29T20:32:29.209Z,2.37
2018-04-29T20:35:02.842Z,2.78
2018-04-29T20:37:36.541Z,2.80
2018-04-29T20:40:10.099Z,4.50
2018-04-29T20:42:43.650Z,3.05
2018-04-29T20:45:17.261Z,2.50
2018-04-29T20:47:50.809Z,2.60
2018-04-29T20:50:24.549Z,2.90
2018-04-29T20:52:58.854Z,3.60
2018-04-29T20:55:33.292Z,3.20
2018-04-29T20:58:08.495Z,3.47
2018-04-29T21:00:42.857Z,3.42
2018-04-29T21:03:16.503Z,4.85
2018-04-29T21:05:50.121Z,2.92
2018-04-29T21:08:23.664Z,3.70
2018-04-29T21:10:57.234Z,3.30
2018-04-29T21:13:30.890Z,3.20
2018-04-29T21:16:04.408Z,3.28
2018-04-29T21:18:38.041Z,3.47
2018-04-29T21:21:11.599Z,2.85
2018-04-29T21:23:45.229Z,3.28
2018-04-29T21:26:19.550Z,2.65
2018-04-29T21:28:53.261Z,2.95
2018-04-29T21:31:26.842Z,3.08
2018-04-29T21:34:00.366Z,2.97
2018-04-29T21:36:33.887Z,3.55
2018-04-29T21:39:07.568Z,3.90
2018-04-29T21:41:41.134Z,3.30
2018-04-29T21:44:14.760Z,3.03
2018-04-29T21:46:48.351Z,3.30
2018-04-29T21:49:21.936Z,3.45
2018-04-29T21:51:55.572Z,3.85
2018-04-29T21:54:29.192Z,5.18
2018-04-29T21:57:02.717Z,3.50
2018-04-29T21:59:36.257Z,3.72
2018-04-29T22:02:09.773Z,3.10
2018-04-29T22:04:44.054Z,3.28
2018-04-29T22:07:17.664Z,2.97
2018-04-29T22:09:51.376Z,4.70
2018-04-29T22:12:24.969Z,3.00
2018-04-29T22:14:58.504Z,3.65
2018-04-29T22:17:32.072Z,3.40
2018-04-29T22:20:05.677Z,2.75
2018-04-29T22:22:39.264Z,3.95
2018-04-29T22:25:12.860Z,3.55
2018-04-29T22:27:47.137Z,3.22
2018-04-29T22:30:20.785Z,2.90
2018-04-29T22:32:54.364Z,4.28
2018-04-29T22:35:28.004Z,3.80
2018-04-29T22:38:01.518Z,3.12
2018-04-29T22:40:35.081Z,3.05
2018-04-29T22:43:08.665Z,3.62
2018-04-29T22:45:42.225Z,3.12
2018-04-29T22:48:15.803Z,3.30
2018-04-29T22:50:49.388Z,3.53
2018-04-29T22:53:23.168Z,3.65
2018-04-29T22:55:56.705Z,3.37
2018-04-29T22:58:30.301Z,3.87
2018-04-29T23:01:03.866Z,3.87
2018-04-29T23:03:37.524Z,2.75
2018-04-29T23:06:11.108Z,3.65
2018-04-29T23:08:44.716Z,3.08
2018-04-29T23:11:18.277Z,3.40
2018-04-29T23:13:51.844Z,3.15
2018-04-29T23:16:25.495Z,3.17
2018-04-29T23:18:59.104Z,4.03
2018-04-29T23:21:32.629Z,3.40
2018-04-29T23:24:06.180Z,3.87
2018-04-29T23:26:39.693Z,3.37
2018-04-29T23:29:13.267Z,3.17
2018-04-29T23:31:46.862Z,3.53
2018-04-29T23:34:20.413Z,3.37
2018-04-29T23:36:53.930Z,3.25
2018-04-29T23:39:27.537Z,4.10
2018-04-29T23:42:01.905Z,3.17
2018-04-29T23:44:35.636Z,3.80
2018-04-29T23:47:09.191Z,3.40
2018-04-29T23:49:42.787Z,3.67
2018-04-29T23:52:16.417Z,3.97
2018-04-29T23:54:50.006Z,3.25
2018-04-29T23:57:23.591Z,5.15
2018-04-29T23:59:57.118Z,3.10
